sensor_id;sensor_type;location;lat;lon;timestamp;P1;durP1;ratioP1;P2;durP2;ratioP2
7901;SDS011;3996;49.674;10.716;2024-01-10T00:00:37;13.20;;;6.70;;
7901;SDS011;3996;49.674;10.716;2024-01-10T00:03:03;12.53;;;6.70;;
7901;SDS011;3996;49.674;10.716;2024-01-10T00:05:28;11.77;;;7.37;;
7901;SDS011;3996;49.674;10.716;2024-01-10T00:07:54;12.40;;;6.87;;
7901;SDS011;3996;49.674;10.716;2024-01-10T00:10:20;14.77;;;7.00;;
7901;SDS011;3996;49.674;10.716;2024-01-10T00:12:47;12.57;;;6.77;;
7901;SDS011;3996;49.674;10.716;2024-01-10T00:15:12;11.07;;;6.13;;
7901;SDS011;3996;49.674;10.716;2024-01-10T00:17:39;11.80;;;6.70;;
7901;SDS011;3996;49.674;10.716;2024-01-10T00:20:06;10.73;;;6.10;;
7901;SDS011;3996;49.674;10.716;2024-01-10T00:22:33;13.57;;;6.87;;
7901;SDS011;3996;49.674;10.716;2024-01-10T00:24:58;11.90;;;6.80;;
7901;SDS011;3996;49.674;10.716;2024-01-10T00:27:24;11.67;;;6.53;;
7901;SDS011;3996;49.674;10.716;2024-01-10T00:29:49;12.10;;;6.90;;
7901;SDS011;3996;49.674;10.716;2024-01-10T00:32:16;12.23;;;6.80;;
7901;SDS011;3996;49.674;10.716;2024-01-10T00:34:42;14.03;;;6.83;;
7901;SDS011;3996;49.674;10.716;2024-01-10T00:37:08;10.87;;;6.13;;
7901;SDS011;3996;49.674;10.716;2024-01-10T00:39:33;11.77;;;6.67;;
7901;SDS011;3996;49.674;10.716;2024-01-10T00:41:59;12.53;;;7.20;;
7901;SDS011;3996;49.674;10.716;2024-01-10T00:44:24;13.20;;;7.23;;
7901;SDS011;3996;49.674;10.716;2024-01-10T00:46:50;12.03;;;7.33;;
7901;SDS011;3996;49.674;10.716;2024-01-10T00:49:15;14.77;;;7.83;;
7901;SDS011;3996;49.674;10.716;2024-01-10T00:51:41;15.10;;;7.97;;
7901;SDS011;3996;49.674;10.716;2024-01-10T00:54:06;14.90;;;7.93;;
7901;SDS011;3996;49.674;10.716;2024-01-10T00:56:32;17.57;;;8.13;;
7901;SDS011;3996;49.674;10.716;2024-01-10T00:58:58;16.53;;;8.50;;
7901;SDS011;3996;49.674;10.716;2024-01-10T01:01:23;15.10;;;7.40;;
7901;SDS011;3996;49.674;10.716;2024-01-10T01:03:49;14.37;;;7.13;;
7901;SDS011;3996;49.674;10.716;2024-01-10T01:06:15;12.50;;;7.13;;
7901;SDS011;3996;49.674;10.716;2024-01-10T01:08:41;14.23;;;7.60;;
7901;SDS011;3996;49.674;10.716;2024-01-10T01:11:06;12.33;;;7.93;;
7901;SDS011;3996;49.674;10.716;2024-01-10T01:13:32;11.83;;;7.30;;
7901;SDS011;3996;49.674;10.716;2024-01-10T01:15:57;13.33;;;6.77;;
7901;SDS011;3996;49.674;10.716;2024-01-10T01:18:23;15.40;;;7.40;;
7901;SDS011;3996;49.674;10.716;2024-01-10T01:20:49;14.70;;;7.90;;
7901;SDS011;3996;49.674;10.716;2024-01-10T01:23:15;13.77;;;7.43;;
7901;SDS011;3996;49.674;10.716;2024-01-10T01:25:41;13.33;;;7.27;;
7901;SDS011;3996;49.674;10.716;2024-01-10T01:28:07;12.63;;;7.13;;
7901;SDS011;3996;49.674;10.716;2024-01-10T01:30:33;12.07;;;7.27;;
7901;SDS011;3996;49.674;10.716;2024-01-10T01:32:58;12.17;;;6.70;;
7901;SDS011;3996;49.674;10.716;2024-01-10T01:35:24;12.40;;;7.73;;
7901;SDS011;3996;49.674;10.716;2024-01-10T01:37:50;12.07;;;7.50;;
7901;SDS011;3996;49.674;10.716;2024-01-10T01:40:17;14.17;;;7.73;;
7901;SDS011;3996;49.674;10.716;2024-01-10T01:42:44;12.27;;;6.97;;
7901;SDS011;3996;49.674;10.716;2024-01-10T01:45:10;13.40;;;7.53;;
7901;SDS011;3996;49.674;10.716;2024-01-10T01:47:36;13.73;;;7.30;;
7901;SDS011;3996;49.674;10.716;2024-01-10T01:50:03;13.07;;;7.40;;
7901;SDS011;3996;49.674;10.716;2024-01-10T01:52:30;13.90;;;7.17;;
7901;SDS011;3996;49.674;10.716;2024-01-10T01:54:56;13.53;;;7.73;;
7901;SDS011;3996;49.674;10.716;2024-01-10T01:57:22;13.43;;;7.60;;
7901;SDS011;3996;49.674;10.716;2024-01-10T01:59:48;15.07;;;8.30;;
7901;SDS011;3996;49.674;10.716;2024-01-10T02:02:14;13.30;;;7.73;;
7901;SDS011;3996;49.674;10.716;2024-01-10T02:04:42;14.27;;;8.03;;
7901;SDS011;3996;49.674;10.716;2024-01-10T02:07:07;17.17;;;8.13;;
7901;SDS011;3996;49.674;10.716;2024-01-10T02:09:33;14.40;;;7.77;;
7901;SDS011;3996;49.674;10.716;2024-01-10T02:11:59;12.07;;;7.13;;
7901;SDS011;3996;49.674;10.716;2024-01-10T02:14:24;14.23;;;7.33;;
7901;SDS011;3996;49.674;10.716;2024-01-10T02:16:50;14.30;;;7.20;;
7901;SDS011;3996;49.674;10.716;2024-01-10T02:21:48;15.37;;;7.90;;
7901;SDS011;3996;49.674;10.716;2024-01-10T02:24:13;17.17;;;8.70;;
7901;SDS011;3996;49.674;10.716;2024-01-10T02:26:39;18.70;;;9.40;;
7901;SDS011;3996;49.674;10.716;2024-01-10T02:29:05;16.17;;;9.03;;
7901;SDS011;3996;49.674;10.716;2024-01-10T02:31:31;17.83;;;9.60;;
7901;SDS011;3996;49.674;10.716;2024-01-10T02:33:56;15.87;;;8.50;;
7901;SDS011;3996;49.674;10.716;2024-01-10T02:36:22;14.93;;;8.23;;
7901;SDS011;3996;49.674;10.716;2024-01-10T02:38:47;15.00;;;7.57;;
7901;SDS011;3996;49.674;10.716;2024-01-10T02:41:13;14.70;;;7.97;;
7901;SDS011;3996;49.674;10.716;2024-01-10T02:43:38;14.70;;;7.93;;
7901;SDS011;3996;49.674;10.716;2024-01-10T02:46:04;17.27;;;9.27;;
7901;SDS011;3996;49.674;10.716;2024-01-10T02:48:30;14.33;;;8.00;;
7901;SDS011;3996;49.674;10.716;2024-01-10T02:50:55;14.40;;;7.77;;
7901;SDS011;3996;49.674;10.716;2024-01-10T02:53:21;14.30;;;8.10;;
7901;SDS011;3996;49.674;10.716;2024-01-10T02:55:46;15.60;;;8.47;;
7901;SDS011;3996;49.674;10.716;2024-01-10T02:58:14;15.53;;;8.07;;
7901;SDS011;3996;49.674;10.716;2024-01-10T03:00:39;14.57;;;8.00;;
7901;SDS011;3996;49.674;10.716;2024-01-10T03:03:05;15.17;;;8.17;;
7901;SDS011;3996;49.674;10.716;2024-01-10T03:05:30;15.63;;;8.03;;
7901;SDS011;3996;49.674;10.716;2024-01-10T03:07:56;16.10;;;8.00;;
7901;SDS011;3996;49.674;10.716;2024-01-10T03:10:21;15.67;;;7.77;;
7901;SDS011;3996;49.674;10.716;2024-01-10T03:12:47;13.83;;;7.27;;
7901;SDS011;3996;49.674;10.716;2024-01-10T03:15:13;12.83;;;7.40;;
7901;SDS011;3996;49.674;10.716;2024-01-10T03:17:38;13.27;;;7.63;;
7901;SDS011;3996;49.674;10.716;2024-01-10T03:20:04;13.63;;;7.70;;
7901;SDS011;3996;49.674;10.716;2024-01-10T03:22:30;14.70;;;7.33;;
7901;SDS011;3996;49.674;10.716;2024-01-10T03:24:57;14.73;;;7.47;;
7901;SDS011;3996;49.674;10.716;2024-01-10T03:27:22;14.37;;;7.73;;
7901;SDS011;3996;49.674;10.716;2024-01-10T03:29:48;12.90;;;7.37;;
7901;SDS011;3996;49.674;10.716;2024-01-10T03:32:13;13.63;;;7.27;;
7901;SDS011;3996;49.674;10.716;2024-01-10T03:34:41;13.33;;;7.00;;
7901;SDS011;3996;49.674;10.716;2024-01-10T03:37:07;12.83;;;7.17;;
7901;SDS011;3996;49.674;10.716;2024-01-10T03:39:33;11.43;;;6.90;;
7901;SDS011;3996;49.674;10.716;2024-01-10T03:41:59;12.80;;;7.27;;
7901;SDS011;3996;49.674;10.716;2024-01-10T03:44:26;16.53;;;7.00;;
7901;SDS011;3996;49.674;10.716;2024-01-10T03:46:51;10.50;;;6.73;;
7901;SDS011;3996;49.674;10.716;2024-01-10T03:49:17;11.40;;;6.37;;
7901;SDS011;3996;49.674;10.716;2024-01-10T03:51:42;12.90;;;7.43;;
7901;SDS011;3996;49.674;10.716;2024-01-10T03:54:08;13.03;;;7.10;;
7901;SDS011;3996;49.674;10.716;2024-01-10T03:56:34;12.50;;;6.80;;
7901;SDS011;3996;49.674;10.716;2024-01-10T03:58:59;13.43;;;6.70;;
7901;SDS011;3996;49.674;10.716;2024-01-10T04:01:26;11.80;;;7.10;;
7901;SDS011;3996;49.674;10.716;2024-01-10T04:03:51;14.57;;;6.80;;
7901;SDS011;3996;49.674;10.716;2024-01-10T04:06:17;12.83;;;6.73;;
7901;SDS011;3996;49.674;10.716;2024-01-10T04:08:43;11.43;;;6.67;;
7901;SDS011;3996;49.674;10.716;2024-01-10T04:11:08;12.57;;;6.73;;
7901;SDS011;3996;49.674;10.716;2024-01-10T04:13:34;13.97;;;6.97;;
7901;SDS011;3996;49.674;10.716;2024-01-10T04:16:00;12.50;;;7.83;;
7901;SDS011;3996;49.674;10.716;2024-01-10T04:18:25;12.63;;;6.37;;
7901;SDS011;3996;49.674;10.716;2024-01-10T04:20:51;11.53;;;6.73;;
7901;SDS011;3996;49.674;10.716;2024-01-10T04:23:17;13.13;;;7.17;;
7901;SDS011;3996;49.674;10.716;2024-01-10T04:25:42;11.93;;;6.30;;
7901;SDS011;3996;49.674;10.716;2024-01-10T04:28:08;11.47;;;6.40;;
7901;SDS011;3996;49.674;10.716;2024-01-10T04:30:33;14.20;;;7.33;;
7901;SDS011;3996;49.674;10.716;2024-01-10T04:32:59;13.60;;;7.00;;
7901;SDS011;3996;49.674;10.716;2024-01-10T04:35:28;13.47;;;7.33;;
7901;SDS011;3996;49.674;10.716;2024-01-10T04:37:53;11.80;;;6.73;;
7901;SDS011;3996;49.674;10.716;2024-01-10T04:40:19;11.97;;;6.80;;
7901;SDS011;3996;49.674;10.716;2024-01-10T04:42:44;12.37;;;6.50;;
7901;SDS011;3996;49.674;10.716;2024-01-10T04:45:10;10.87;;;6.17;;
7901;SDS011;3996;49.674;10.716;2024-01-10T04:47:35;12.27;;;6.73;;
7901;SDS011;3996;49.674;10.716;2024-01-10T04:50:01;14.00;;;7.40;;
7901;SDS011;3996;49.674;10.716;2024-01-10T04:52:27;12.63;;;6.30;;
7901;SDS011;3996;49.674;10.716;2024-01-10T04:54:52;11.73;;;6.53;;
7901;SDS011;3996;49.674;10.716;2024-01-10T04:57:18;12.47;;;6.70;;
7901;SDS011;3996;49.674;10.716;2024-01-10T04:59:43;14.13;;;6.57;;
7901;SDS011;3996;49.674;10.716;2024-01-10T05:02:09;11.67;;;6.87;;
7901;SDS011;3996;49.674;10.716;2024-01-10T05:04:35;10.87;;;5.90;;
7901;SDS011;3996;49.674;10.716;2024-01-10T05:07:00;13.67;;;7.13;;
7901;SDS011;3996;49.674;10.716;2024-01-10T05:09:26;12.33;;;6.03;;
7901;SDS011;3996;49.674;10.716;2024-01-10T05:11:52;12.00;;;6.90;;
7901;SDS011;3996;49.674;10.716;2024-01-10T05:14:18;13.00;;;6.23;;
7901;SDS011;3996;49.674;10.716;2024-01-10T05:16:46;11.73;;;6.03;;
7901;SDS011;3996;49.674;10.716;2024-01-10T05:19:13;14.17;;;7.30;;
7901;SDS011;3996;49.674;10.716;2024-01-10T05:21:38;12.13;;;6.50;;
7901;SDS011;3996;49.674;10.716;2024-01-10T05:24:04;13.77;;;7.40;;
7901;SDS011;3996;49.674;10.716;2024-01-10T05:26:30;15.97;;;8.70;;
7901;SDS011;3996;49.674;10.716;2024-01-10T05:28:56;16.60;;;9.07;;
7901;SDS011;3996;49.674;10.716;2024-01-10T05:31:22;17.17;;;8.97;;
7901;SDS011;3996;49.674;10.716;2024-01-10T05:33:48;18.07;;;9.10;;
7901;SDS011;3996;49.674;10.716;2024-01-10T05:36:13;15.83;;;8.73;;
7901;SDS011;3996;49.674;10.716;2024-01-10T05:38:39;15.00;;;8.20;;
7901;SDS011;3996;49.674;10.716;2024-01-10T05:41:07;13.97;;;8.17;;
7901;SDS011;3996;49.674;10.716;2024-01-10T05:43:33;17.97;;;10.27;;
7901;SDS011;3996;49.674;10.716;2024-01-10T05:45:59;14.87;;;8.13;;
7901;SDS011;3996;49.674;10.716;2024-01-10T05:48:25;14.83;;;8.23;;
7901;SDS011;3996;49.674;10.716;2024-01-10T05:50:50;14.33;;;8.60;;
7901;SDS011;3996;49.674;10.716;2024-01-10T05:53:16;15.63;;;9.27;;
7901;SDS011;3996;49.674;10.716;2024-01-10T05:55:42;13.87;;;8.87;;
7901;SDS011;3996;49.674;10.716;2024-01-10T05:58:09;16.23;;;9.20;;
7901;SDS011;3996;49.674;10.716;2024-01-10T06:00:35;15.37;;;8.37;;
7901;SDS011;3996;49.674;10.716;2024-01-10T06:03:00;13.80;;;8.57;;
7901;SDS011;3996;49.674;10.716;2024-01-10T06:05:26;15.83;;;9.03;;
7901;SDS011;3996;49.674;10.716;2024-01-10T06:07:51;16.53;;;8.60;;
7901;SDS011;3996;49.674;10.716;2024-01-10T06:10:17;14.77;;;7.57;;
7901;SDS011;3996;49.674;10.716;2024-01-10T06:12:43;12.83;;;7.80;;
7901;SDS011;3996;49.674;10.716;2024-01-10T06:15:08;14.90;;;9.03;;
7901;SDS011;3996;49.674;10.716;2024-01-10T06:17:35;15.30;;;8.00;;
7901;SDS011;3996;49.674;10.716;2024-01-10T06:20:00;16.03;;;9.23;;
7901;SDS011;3996;49.674;10.716;2024-01-10T06:22:28;14.67;;;8.13;;
7901;SDS011;3996;49.674;10.716;2024-01-10T06:24:53;17.73;;;9.37;;
7901;SDS011;3996;49.674;10.716;2024-01-10T06:27:19;17.33;;;9.70;;
7901;SDS011;3996;49.674;10.716;2024-01-10T06:29:44;16.27;;;9.37;;
7901;SDS011;3996;49.674;10.716;2024-01-10T06:32:10;12.30;;;7.67;;
7901;SDS011;3996;49.674;10.716;2024-01-10T06:34:36;15.23;;;8.20;;
7901;SDS011;3996;49.674;10.716;2024-01-10T06:37:02;14.50;;;8.20;;
7901;SDS011;3996;49.674;10.716;2024-01-10T06:39:28;15.40;;;8.33;;
7901;SDS011;3996;49.674;10.716;2024-01-10T06:41:53;16.17;;;9.17;;
7901;SDS011;3996;49.674;10.716;2024-01-10T06:44:19;14.70;;;8.33;;
7901;SDS011;3996;49.674;10.716;2024-01-10T06:46:45;15.50;;;8.73;;
7901;SDS011;3996;49.674;10.716;2024-01-10T06:49:11;13.97;;;7.90;;
7901;SDS011;3996;49.674;10.716;2024-01-10T06:51:36;14.47;;;7.77;;
7901;SDS011;3996;49.674;10.716;2024-01-10T06:54:02;17.43;;;8.37;;
7901;SDS011;3996;49.674;10.716;2024-01-10T06:56:32;15.20;;;8.80;;
7901;SDS011;3996;49.674;10.716;2024-01-10T06:58:58;14.27;;;8.40;;
7901;SDS011;3996;49.674;10.716;2024-01-10T07:01:24;13.17;;;7.27;;
7901;SDS011;3996;49.674;10.716;2024-01-10T07:03:51;13.67;;;7.40;;
7901;SDS011;3996;49.674;10.716;2024-01-10T07:06:20;13.77;;;7.20;;
7901;SDS011;3996;49.674;10.716;2024-01-10T07:08:47;15.10;;;7.70;;
7901;SDS011;3996;49.674;10.716;2024-01-10T07:11:15;12.73;;;7.10;;
7901;SDS011;3996;49.674;10.716;2024-01-10T07:13:41;11.67;;;7.40;;
7901;SDS011;3996;49.674;10.716;2024-01-10T07:16:07;15.63;;;7.80;;
7901;SDS011;3996;49.674;10.716;2024-01-10T07:18:33;15.40;;;9.47;;
7901;SDS011;3996;49.674;10.716;2024-01-10T07:20:59;16.50;;;9.67;;
7901;SDS011;3996;49.674;10.716;2024-01-10T07:23:25;17.80;;;10.30;;
7901;SDS011;3996;49.674;10.716;2024-01-10T07:25:50;17.63;;;9.17;;
7901;SDS011;3996;49.674;10.716;2024-01-10T07:28:16;16.47;;;10.23;;
7901;SDS011;3996;49.674;10.716;2024-01-10T07:30:42;14.73;;;7.53;;
7901;SDS011;3996;49.674;10.716;2024-01-10T07:33:09;12.80;;;7.17;;
7901;SDS011;3996;49.674;10.716;2024-01-10T07:35:35;12.83;;;6.60;;
7901;SDS011;3996;49.674;10.716;2024-01-10T07:38:03;13.33;;;7.00;;
7901;SDS011;3996;49.674;10.716;2024-01-10T07:40:28;12.60;;;6.87;;
7901;SDS011;3996;49.674;10.716;2024-01-10T07:42:54;16.13;;;8.57;;
7901;SDS011;3996;49.674;10.716;2024-01-10T07:45:20;18.77;;;9.10;;
7901;SDS011;3996;49.674;10.716;2024-01-10T07:47:46;15.03;;;8.07;;
7901;SDS011;3996;49.674;10.716;2024-01-10T07:50:12;14.03;;;6.90;;
7901;SDS011;3996;49.674;10.716;2024-01-10T07:52:39;14.03;;;6.73;;
7901;SDS011;3996;49.674;10.716;2024-01-10T07:55:05;13.43;;;7.57;;
7901;SDS011;3996;49.674;10.716;2024-01-10T07:57:31;23.70;;;10.13;;
7901;SDS011;3996;49.674;10.716;2024-01-10T08:00:01;26.90;;;11.77;;
7901;SDS011;3996;49.674;10.716;2024-01-10T08:02:29;27.13;;;10.50;;
7901;SDS011;3996;49.674;10.716;2024-01-10T08:04:58;24.87;;;9.50;;
7901;SDS011;3996;49.674;10.716;2024-01-10T08:07:30;16.37;;;7.23;;
7901;SDS011;3996;49.674;10.716;2024-01-10T08:09:57;13.77;;;8.03;;
7901;SDS011;3996;49.674;10.716;2024-01-10T08:12:26;15.57;;;8.00;;
7901;SDS011;3996;49.674;10.716;2024-01-10T08:14:53;16.77;;;8.23;;
7901;SDS011;3996;49.674;10.716;2024-01-10T08:17:18;19.80;;;9.20;;
7901;SDS011;3996;49.674;10.716;2024-01-10T08:19:44;19.33;;;9.70;;
7901;SDS011;3996;49.674;10.716;2024-01-10T08:22:10;20.80;;;10.73;;
7901;SDS011;3996;49.674;10.716;2024-01-10T08:24:37;25.33;;;12.00;;
7901;SDS011;3996;49.674;10.716;2024-01-10T08:27:03;25.93;;;12.10;;
7901;SDS011;3996;49.674;10.716;2024-01-10T08:29:29;27.53;;;13.17;;
7901;SDS011;3996;49.674;10.716;2024-01-10T08:31:56;29.17;;;14.10;;
7901;SDS011;3996;49.674;10.716;2024-01-10T08:34:22;33.43;;;14.77;;
7901;SDS011;3996;49.674;10.716;2024-01-10T08:36:48;32.23;;;13.97;;
7901;SDS011;3996;49.674;10.716;2024-01-10T08:39:17;23.57;;;12.00;;
7901;SDS011;3996;49.674;10.716;2024-01-10T08:41:43;22.10;;;11.53;;
7901;SDS011;3996;49.674;10.716;2024-01-10T08:44:12;33.57;;;14.23;;
7901;SDS011;3996;49.674;10.716;2024-01-10T08:46:38;32.20;;;14.73;;
7901;SDS011;3996;49.674;10.716;2024-01-10T08:49:04;48.90;;;22.33;;
7901;SDS011;3996;49.674;10.716;2024-01-10T08:51:30;21.90;;;10.23;;
7901;SDS011;3996;49.674;10.716;2024-01-10T08:53:56;108.33;;;41.30;;
7901;SDS011;3996;49.674;10.716;2024-01-10T08:56:22;195.27;;;74.80;;
7901;SDS011;3996;49.674;10.716;2024-01-10T08:58:48;107.90;;;45.20;;
7901;SDS011;3996;49.674;10.716;2024-01-10T09:01:14;129.47;;;55.20;;
7901;SDS011;3996;49.674;10.716;2024-01-10T09:03:40;94.13;;;41.93;;
7901;SDS011;3996;49.674;10.716;2024-01-10T09:06:05;50.37;;;26.50;;
7901;SDS011;3996;49.674;10.716;2024-01-10T09:08:32;42.93;;;23.53;;
7901;SDS011;3996;49.674;10.716;2024-01-10T09:10:59;29.00;;;17.23;;
7901;SDS011;3996;49.674;10.716;2024-01-10T09:13:24;28.83;;;17.67;;
7901;SDS011;3996;49.674;10.716;2024-01-10T09:15:50;20.87;;;11.70;;
7901;SDS011;3996;49.674;10.716;2024-01-10T09:18:16;17.20;;;10.10;;
7901;SDS011;3996;49.674;10.716;2024-01-10T09:20:41;17.13;;;9.60;;
7901;SDS011;3996;49.674;10.716;2024-01-10T09:23:07;12.83;;;8.73;;
7901;SDS011;3996;49.674;10.716;2024-01-10T09:25:32;15.13;;;8.47;;
7901;SDS011;3996;49.674;10.716;2024-01-10T09:27:58;14.77;;;8.50;;
7901;SDS011;3996;49.674;10.716;2024-01-10T09:30:24;13.70;;;7.83;;
7901;SDS011;3996;49.674;10.716;2024-01-10T09:32:49;14.23;;;8.37;;
7901;SDS011;3996;49.674;10.716;2024-01-10T09:35:15;16.03;;;8.93;;
7901;SDS011;3996;49.674;10.716;2024-01-10T09:37:41;14.93;;;9.03;;
7901;SDS011;3996;49.674;10.716;2024-01-10T09:40:06;14.30;;;8.00;;
7901;SDS011;3996;49.674;10.716;2024-01-10T09:42:33;15.13;;;7.40;;
7901;SDS011;3996;49.674;10.716;2024-01-10T09:45:00;15.13;;;8.63;;
7901;SDS011;3996;49.674;10.716;2024-01-10T09:47:28;14.13;;;8.20;;
7901;SDS011;3996;49.674;10.716;2024-01-10T09:49:56;14.77;;;8.07;;
7901;SDS011;3996;49.674;10.716;2024-01-10T09:52:26;14.27;;;8.30;;
7901;SDS011;3996;49.674;10.716;2024-01-10T09:54:56;13.77;;;8.50;;
7901;SDS011;3996;49.674;10.716;2024-01-10T09:57:25;13.17;;;7.87;;
7901;SDS011;3996;49.674;10.716;2024-01-10T09:59:51;15.17;;;7.87;;
7901;SDS011;3996;49.674;10.716;2024-01-10T10:02:19;14.33;;;8.60;;
7901;SDS011;3996;49.674;10.716;2024-01-10T10:04:57;13.63;;;8.13;;
7901;SDS011;3996;49.674;10.716;2024-01-10T10:07:25;16.03;;;9.33;;
7901;SDS011;3996;49.674;10.716;2024-01-10T10:09:51;13.10;;;7.80;;
7901;SDS011;3996;49.674;10.716;2024-01-10T10:12:18;14.93;;;8.40;;
7901;SDS011;3996;49.674;10.716;2024-01-10T10:14:44;17.57;;;8.60;;
7901;SDS011;3996;49.674;10.716;2024-01-10T10:17:16;15.70;;;8.90;;
7901;SDS011;3996;49.674;10.716;2024-01-10T10:19:43;14.73;;;8.63;;
7901;SDS011;3996;49.674;10.716;2024-01-10T10:22:12;13.47;;;8.73;;
7901;SDS011;3996;49.674;10.716;2024-01-10T10:24:38;15.87;;;8.67;;
7901;SDS011;3996;49.674;10.716;2024-01-10T10:27:10;15.93;;;8.83;;
7901;SDS011;3996;49.674;10.716;2024-01-10T10:29:36;16.10;;;8.90;;
7901;SDS011;3996;49.674;10.716;2024-01-10T10:32:02;18.57;;;9.13;;
7901;SDS011;3996;49.674;10.716;2024-01-10T10:34:30;13.67;;;8.43;;
7901;SDS011;3996;49.674;10.716;2024-01-10T10:37:00;16.70;;;9.07;;
7901;SDS011;3996;49.674;10.716;2024-01-10T10:39:27;15.97;;;9.20;;
7901;SDS011;3996;49.674;10.716;2024-01-10T10:41:53;15.17;;;9.00;;
7901;SDS011;3996;49.674;10.716;2024-01-10T10:44:20;15.70;;;8.60;;
7901;SDS011;3996;49.674;10.716;2024-01-10T10:46:49;14.70;;;8.97;;
7901;SDS011;3996;49.674;10.716;2024-01-10T10:49:17;19.37;;;9.57;;
7901;SDS011;3996;49.674;10.716;2024-01-10T10:51:48;15.30;;;8.80;;
7901;SDS011;3996;49.674;10.716;2024-01-10T10:54:15;16.63;;;8.90;;
7901;SDS011;3996;49.674;10.716;2024-01-10T10:56:43;15.80;;;9.33;;
7901;SDS011;3996;49.674;10.716;2024-01-10T10:59:09;18.17;;;9.97;;
7901;SDS011;3996;49.674;10.716;2024-01-10T11:01:35;15.13;;;8.87;;
7901;SDS011;3996;49.674;10.716;2024-01-10T11:04:01;18.33;;;9.00;;
7901;SDS011;3996;49.674;10.716;2024-01-10T11:06:28;16.67;;;8.73;;
7901;SDS011;3996;49.674;10.716;2024-01-10T11:09:04;16.83;;;9.47;;
7901;SDS011;3996;49.674;10.716;2024-01-10T11:14:30;16.13;;;8.97;;
7901;SDS011;3996;49.674;10.716;2024-01-10T11:17:09;14.50;;;8.97;;
7901;SDS011;3996;49.674;10.716;2024-01-10T11:25:54;15.97;;;9.17;;
7901;SDS011;3996;49.674;10.716;2024-01-10T11:28:20;21.57;;;11.30;;
7901;SDS011;3996;49.674;10.716;2024-01-10T11:30:49;17.73;;;10.07;;
7901;SDS011;3996;49.674;10.716;2024-01-10T11:33:20;22.47;;;11.67;;
7901;SDS011;3996;49.674;10.716;2024-01-10T11:36:05;19.40;;;10.23;;
7901;SDS011;3996;49.674;10.716;2024-01-10T11:46:34;16.40;;;9.23;;
7901;SDS011;3996;49.674;10.716;2024-01-10T11:49:00;17.83;;;9.53;;
7901;SDS011;3996;49.674;10.716;2024-01-10T11:51:26;20.83;;;10.50;;
7901;SDS011;3996;49.674;10.716;2024-01-10T11:53:52;37.10;;;19.67;;
7901;SDS011;3996;49.674;10.716;2024-01-10T11:56:18;26.23;;;16.90;;
7901;SDS011;3996;49.674;10.716;2024-01-10T12:01:20;15.27;;;9.70;;
7901;SDS011;3996;49.674;10.716;2024-01-10T12:03:51;14.47;;;9.03;;
7901;SDS011;3996;49.674;10.716;2024-01-10T12:06:17;14.57;;;8.83;;
7901;SDS011;3996;49.674;10.716;2024-01-10T12:08:45;19.27;;;10.07;;
7901;SDS011;3996;49.674;10.716;2024-01-10T12:11:11;15.53;;;8.93;;
7901;SDS011;3996;49.674;10.716;2024-01-10T12:13:37;15.03;;;8.70;;
7901;SDS011;3996;49.674;10.716;2024-01-10T12:16:02;16.27;;;8.77;;
7901;SDS011;3996;49.674;10.716;2024-01-10T12:18:29;15.63;;;9.23;;
7901;SDS011;3996;49.674;10.716;2024-01-10T12:20:55;15.47;;;9.13;;
7901;SDS011;3996;49.674;10.716;2024-01-10T12:23:20;17.07;;;8.80;;
7901;SDS011;3996;49.674;10.716;2024-01-10T12:25:48;15.67;;;8.70;;
7901;SDS011;3996;49.674;10.716;2024-01-10T12:28:16;17.20;;;9.57;;
7901;SDS011;3996;49.674;10.716;2024-01-10T12:30:42;17.30;;;9.30;;
7901;SDS011;3996;49.674;10.716;2024-01-10T12:33:10;17.60;;;9.53;;
7901;SDS011;3996;49.674;10.716;2024-01-10T12:35:36;16.87;;;8.87;;
7901;SDS011;3996;49.674;10.716;2024-01-10T12:38:06;17.73;;;9.23;;
7901;SDS011;3996;49.674;10.716;2024-01-10T12:40:34;16.73;;;9.77;;
7901;SDS011;3996;49.674;10.716;2024-01-10T12:43:03;15.17;;;9.07;;
7901;SDS011;3996;49.674;10.716;2024-01-10T12:45:29;15.87;;;9.63;;
7901;SDS011;3996;49.674;10.716;2024-01-10T12:47:56;14.10;;;8.53;;
7901;SDS011;3996;49.674;10.716;2024-01-10T12:50:22;14.33;;;8.67;;
7901;SDS011;3996;49.674;10.716;2024-01-10T12:53:23;14.73;;;9.10;;
7901;SDS011;3996;49.674;10.716;2024-01-10T12:55:55;16.53;;;8.87;;
7901;SDS011;3996;49.674;10.716;2024-01-10T12:58:22;14.17;;;8.97;;
7901;SDS011;3996;49.674;10.716;2024-01-10T13:00:47;18.17;;;10.03;;
7901;SDS011;3996;49.674;10.716;2024-01-10T13:03:13;16.00;;;9.23;;
7901;SDS011;3996;49.674;10.716;2024-01-10T13:05:39;17.00;;;9.27;;
7901;SDS011;3996;49.674;10.716;2024-01-10T13:08:05;15.70;;;9.33;;
7901;SDS011;3996;49.674;10.716;2024-01-10T13:10:31;14.07;;;8.77;;
7901;SDS011;3996;49.674;10.716;2024-01-10T13:12:57;13.90;;;8.47;;
7901;SDS011;3996;49.674;10.716;2024-01-10T13:15:22;17.80;;;9.10;;
7901;SDS011;3996;49.674;10.716;2024-01-10T13:17:48;17.10;;;9.70;;
7901;SDS011;3996;49.674;10.716;2024-01-10T13:20:14;18.03;;;8.80;;
7901;SDS011;3996;49.674;10.716;2024-01-10T13:22:40;17.03;;;8.93;;
7901;SDS011;3996;49.674;10.716;2024-01-10T13:25:05;14.77;;;9.17;;
7901;SDS011;3996;49.674;10.716;2024-01-10T13:27:31;14.47;;;8.73;;
7901;SDS011;3996;49.674;10.716;2024-01-10T13:29:57;16.47;;;9.23;;
7901;SDS011;3996;49.674;10.716;2024-01-10T13:32:23;16.10;;;9.57;;
7901;SDS011;3996;49.674;10.716;2024-01-10T13:34:50;14.87;;;8.97;;
7901;SDS011;3996;49.674;10.716;2024-01-10T13:37:16;20.00;;;10.83;;
7901;SDS011;3996;49.674;10.716;2024-01-10T13:39:41;19.63;;;12.30;;
7901;SDS011;3996;49.674;10.716;2024-01-10T13:42:07;18.87;;;10.40;;
7901;SDS011;3996;49.674;10.716;2024-01-10T13:44:35;16.93;;;9.67;;
7901;SDS011;3996;49.674;10.716;2024-01-10T13:47:01;18.37;;;9.40;;
7901;SDS011;3996;49.674;10.716;2024-01-10T13:49:28;15.53;;;8.83;;
7901;SDS011;3996;49.674;10.716;2024-01-10T13:51:54;17.17;;;9.97;;
7901;SDS011;3996;49.674;10.716;2024-01-10T13:54:19;16.77;;;9.70;;
7901;SDS011;3996;49.674;10.716;2024-01-10T13:56:46;20.10;;;12.70;;
7901;SDS011;3996;49.674;10.716;2024-01-10T13:59:12;17.37;;;10.70;;
7901;SDS011;3996;49.674;10.716;2024-01-10T14:01:38;13.83;;;8.67;;
7901;SDS011;3996;49.674;10.716;2024-01-10T14:04:04;45.17;;;26.47;;
7901;SDS011;3996;49.674;10.716;2024-01-10T14:06:30;19.73;;;12.30;;
7901;SDS011;3996;49.674;10.716;2024-01-10T14:08:56;15.83;;;9.30;;
7901;SDS011;3996;49.674;10.716;2024-01-10T14:11:22;13.57;;;9.67;;
7901;SDS011;3996;49.674;10.716;2024-01-10T14:13:49;17.30;;;9.93;;
7901;SDS011;3996;49.674;10.716;2024-01-10T14:16:15;15.87;;;9.37;;
7901;SDS011;3996;49.674;10.716;2024-01-10T14:18:40;16.47;;;10.17;;
7901;SDS011;3996;49.674;10.716;2024-01-10T14:21:06;18.07;;;9.33;;
7901;SDS011;3996;49.674;10.716;2024-01-10T14:23:32;17.40;;;9.37;;
7901;SDS011;3996;49.674;10.716;2024-01-10T14:25:58;16.20;;;10.03;;
7901;SDS011;3996;49.674;10.716;2024-01-10T14:28:24;13.70;;;9.00;;
7901;SDS011;3996;49.674;10.716;2024-01-10T14:30:50;18.70;;;10.33;;
7901;SDS011;3996;49.674;10.716;2024-01-10T14:33:16;16.40;;;9.67;;
7901;SDS011;3996;49.674;10.716;2024-01-10T14:35:41;17.03;;;9.83;;
7901;SDS011;3996;49.674;10.716;2024-01-10T14:38:07;18.00;;;9.73;;
7901;SDS011;3996;49.674;10.716;2024-01-10T14:40:33;14.57;;;9.30;;
7901;SDS011;3996;49.674;10.716;2024-01-10T14:42:58;18.53;;;9.97;;
7901;SDS011;3996;49.674;10.716;2024-01-10T14:45:24;16.67;;;9.30;;
7901;SDS011;3996;49.674;10.716;2024-01-10T14:47:49;16.30;;;9.70;;
7901;SDS011;3996;49.674;10.716;2024-01-10T14:50:16;17.53;;;10.23;;
7901;SDS011;3996;49.674;10.716;2024-01-10T14:52:42;16.07;;;9.43;;
7901;SDS011;3996;49.674;10.716;2024-01-10T14:55:07;17.07;;;9.93;;
7901;SDS011;3996;49.674;10.716;2024-01-10T14:57:33;15.93;;;10.03;;
7901;SDS011;3996;49.674;10.716;2024-01-10T14:59:59;18.67;;;10.13;;
7901;SDS011;3996;49.674;10.716;2024-01-10T15:02:25;18.00;;;10.77;;